createdAt,value
2019-03-23T00:01:17.149Z,99385.65
2019-03-23T00:03:45.920Z,99383.70
2019-03-23T00:06:14.242Z,99382.56
2019-03-23T00:08:42.547Z,99384.34
2019-03-23T00:11:10.869Z,99387.08
2019-03-23T00:13:39.611Z,99387.38
2019-03-23T00:16:07.933Z,99380.00
2019-03-23T00:18:36.260Z,99382.88
2019-03-23T00:21:04.894Z,99378.98
2019-03-23T00:23:33.229Z,99373.17
2019-03-23T00:26:01.531Z,99370.77
2019-03-23T00:28:29.915Z,99372.53
2019-03-23T00:30:58.584Z,99371.84
2019-03-23T00:33:27.170Z,99365.41
2019-03-23T00:35:55.493Z,99363.24
2019-03-23T00:38:23.868Z,99363.00
2019-03-23T00:40:52.202Z,99365.03
2019-03-23T00:43:20.519Z,99366.80
2019-03-23T00:45:48.846Z,99362.22
2019-03-23T00:48:17.230Z,99360.78
2019-03-23T00:50:45.529Z,99363.11
2019-03-23T00:53:13.858Z,99357.34
2019-03-23T00:55:42.160Z,99364.10
2019-03-23T00:58:10.570Z,99362.00
2019-03-23T01:00:38.940Z,99358.60
2019-03-23T01:03:07.651Z,99360.09
2019-03-23T01:05:35.957Z,99363.48
2019-03-23T01:08:04.287Z,99365.51
2019-03-23T01:10:32.600Z,99358.95
2019-03-23T01:13:00.963Z,99357.17
2019-03-23T01:15:29.597Z,99352.18
2019-03-23T01:17:57.903Z,99355.11
2019-03-23T01:20:26.223Z,99356.94
2019-03-23T01:22:54.542Z,99356.75
2019-03-23T01:25:22.867Z,99363.78
2019-03-23T01:27:51.174Z,99354.56
2019-03-23T01:30:20.163Z,99358.30
2019-03-23T01:32:48.469Z,99349.16
2019-03-23T01:35:16.776Z,99348.30
2019-03-23T01:37:45.171Z,99353.63
2019-03-23T01:40:13.555Z,99355.25
2019-03-23T01:42:41.902Z,99353.09
2019-03-23T01:45:12.225Z,99354.41
2019-03-23T01:47:40.650Z,99352.78
2019-03-23T01:50:10.470Z,99355.09
2019-03-23T01:52:38.846Z,99354.29
2019-03-23T01:55:08.720Z,99354.38
2019-03-23T01:57:37.171Z,99350.11
2019-03-23T02:00:10.487Z,99342.86
2019-03-23T02:02:38.791Z,99345.97
2019-03-23T02:05:08.889Z,99342.20
2019-03-23T02:07:37.202Z,99349.28
2019-03-23T02:10:07.986Z,99346.29
2019-03-23T02:12:36.362Z,99348.95
2019-03-23T02:15:06.870Z,99347.31
2019-03-23T02:17:35.194Z,99348.78
2019-03-23T02:20:05.404Z,99346.49
2019-03-23T02:22:33.796Z,99347.80
2019-03-23T02:25:02.475Z,99345.19
2019-03-23T02:27:30.798Z,99338.09
2019-03-23T02:29:59.098Z,99335.66
2019-03-23T02:32:27.731Z,99335.02
2019-03-23T02:34:56.134Z,99334.19
2019-03-23T02:37:27.961Z,99337.41
2019-03-23T02:39:54.495Z,99335.09
2019-03-23T02:42:22.830Z,99329.88
2019-03-23T02:44:51.478Z,99339.55
2019-03-23T02:47:19.819Z,99332.20
2019-03-23T02:49:48.129Z,99328.36
2019-03-23T02:52:16.538Z,99331.04
2019-03-23T02:54:44.874Z,99329.73
2019-03-23T02:57:13.491Z,99329.97
2019-03-23T02:59:42.040Z,99329.97
2019-03-23T03:02:10.369Z,99332.28
2019-03-23T03:04:38.707Z,99332.41
2019-03-23T03:07:07.114Z,99330.98
2019-03-23T03:09:35.419Z,99330.19
2019-03-23T03:12:03.904Z,99326.99
2019-03-23T03:14:32.204Z,99326.88
2019-03-23T03:17:00.539Z,99321.59
2019-03-23T03:19:28.840Z,99320.42
2019-03-23T03:21:57.257Z,99327.36
2019-03-23T03:24:25.803Z,99328.53
2019-03-23T03:26:54.383Z,99320.27
2019-03-23T03:29:22.857Z,99325.83
2019-03-23T03:31:51.184Z,99320.59
2019-03-23T03:34:19.517Z,99320.52
2019-03-23T03:36:48.084Z,99323.48
2019-03-23T03:39:16.380Z,99315.59
2019-03-23T03:41:44.910Z,99318.95
2019-03-23T03:44:13.210Z,99317.31
2019-03-23T03:46:41.542Z,99317.67
2019-03-23T03:49:12.557Z,99323.12
2019-03-23T03:51:39.905Z,99328.09
2019-03-23T03:54:08.220Z,99326.34
2019-03-23T03:56:36.549Z,99324.25
2019-03-23T03:59:04.853Z,99330.60
2019-03-23T04:01:33.190Z,99326.50
2019-03-23T04:04:01.494Z,99322.87
2019-03-23T04:06:29.802Z,99324.67
2019-03-23T04:08:58.129Z,99326.19
2019-03-23T04:11:26.436Z,99328.52
2019-03-23T04:13:54.767Z,99330.53
2019-03-23T04:16:23.079Z,99332.47
2019-03-23T04:18:52.307Z,99335.39
2019-03-23T04:21:20.608Z,99325.88
2019-03-23T04:23:48.934Z,99328.41
2019-03-23T04:26:17.247Z,99332.02
2019-03-23T04:28:45.688Z,99333.44
2019-03-23T04:31:13.997Z,99336.24
2019-03-23T04:33:42.633Z,99335.31
2019-03-23T04:36:11.016Z,99339.84
2019-03-23T04:38:39.362Z,99332.97
2019-03-23T04:41:07.764Z,99330.48
2019-03-23T04:43:36.061Z,99327.58
2019-03-23T04:46:04.453Z,99337.43
2019-03-23T04:48:32.761Z,99338.96
2019-03-23T04:51:01.072Z,99341.55
2019-03-23T04:53:29.396Z,99337.59
2019-03-23T04:55:57.777Z,99336.81
2019-03-23T04:58:26.106Z,99340.38
2019-03-23T05:00:54.497Z,99343.47
2019-03-23T05:03:22.824Z,99345.22
2019-03-23T05:05:51.399Z,99342.93
2019-03-23T05:08:19.709Z,99348.55
2019-03-23T05:10:48.038Z,99353.37
2019-03-23T05:13:16.637Z,99362.22
2019-03-23T05:15:44.962Z,99364.17
2019-03-23T05:18:13.270Z,99366.37
2019-03-23T05:20:41.600Z,99369.45
2019-03-23T05:23:10.946Z,99368.70
2019-03-23T05:25:39.269Z,99373.89
2019-03-23T05:28:07.976Z,99373.41
2019-03-23T05:30:36.283Z,99378.98
2019-03-23T05:33:04.610Z,99385.28
2019-03-23T05:35:32.917Z,99385.47
2019-03-23T05:38:01.635Z,99384.42
2019-03-23T05:40:29.943Z,99390.73
2019-03-23T05:42:58.341Z,99405.27
2019-03-23T05:45:27.029Z,99404.16
2019-03-23T05:47:55.353Z,99401.16
2019-03-23T05:50:23.668Z,99395.50
2019-03-23T05:52:52.275Z,99395.43
2019-03-23T05:55:20.608Z,99400.08
2019-03-23T05:57:48.912Z,99401.42
2019-03-23T06:00:18.580Z,99404.27
2019-03-23T06:02:46.958Z,99409.61
2019-03-23T06:05:15.285Z,99413.48
2019-03-23T06:07:43.617Z,99410.46
2019-03-23T06:10:12.258Z,99411.98
2019-03-23T06:12:40.574Z,99415.53
2019-03-23T06:15:09.319Z,99423.53
2019-03-23T06:17:38.032Z,99429.66
2019-03-23T06:20:08.312Z,99430.56
2019-03-23T06:22:36.635Z,99435.25
2019-03-23T06:25:07.024Z,99441.69
2019-03-23T06:27:35.410Z,99441.17
2019-03-23T06:30:04.382Z,99432.28
2019-03-23T06:32:32.708Z,99437.48
2019-03-23T06:35:01.123Z,99428.47
2019-03-23T06:37:29.453Z,99428.73
2019-03-23T06:39:57.751Z,99428.48
2019-03-23T06:42:26.082Z,99426.38
2019-03-23T06:44:54.525Z,99431.67
2019-03-23T06:47:22.845Z,99432.17
2019-03-23T06:49:51.148Z,99431.21
2019-03-23T06:52:19.960Z,99439.70
2019-03-23T06:54:48.359Z,99438.17
2019-03-23T06:57:16.669Z,99431.75
2019-03-23T06:59:44.985Z,99436.52
2019-03-23T07:02:13.618Z,99436.53
2019-03-23T07:04:42.086Z,99434.45
2019-03-23T07:07:10.939Z,99436.59
2019-03-23T07:09:39.261Z,99440.12
2019-03-23T07:12:07.568Z,99441.52
2019-03-23T07:14:35.885Z,99441.06
2019-03-23T07:17:04.325Z,99445.21
2019-03-23T07:19:32.808Z,99444.73
2019-03-23T07:22:01.121Z,99450.44
2019-03-23T07:24:29.450Z,99447.80
2019-03-23T07:26:57.779Z,99446.39
2019-03-23T07:29:26.091Z,99439.59
2019-03-23T07:32:05.245Z,99436.97
2019-03-23T07:34:24.447Z,99436.79
2019-03-23T07:36:52.773Z,99436.56
2019-03-23T07:39:27.309Z,99434.55
2019-03-23T07:41:51.111Z,99435.55
2019-03-23T07:44:19.527Z,99437.19
2019-03-23T07:46:47.834Z,99440.09
2019-03-23T07:49:16.453Z,99439.80
2019-03-23T07:51:44.772Z,99439.52
2019-03-23T07:54:14.350Z,99442.69
2019-03-23T07:56:42.652Z,99437.69
2019-03-23T07:59:10.956Z,99440.06
2019-03-23T08:01:39.290Z,99441.30
2019-03-23T08:04:07.658Z,99436.53
2019-03-23T08:06:35.984Z,99434.77
2019-03-23T08:09:05.424Z,99437.38
2019-03-23T08:11:33.743Z,99441.05
2019-03-23T08:14:02.040Z,99430.30
2019-03-23T08:16:30.364Z,99433.39
2019-03-23T08:18:58.669Z,99429.25
2019-03-23T08:21:26.996Z,99428.64
2019-03-23T08:23:55.643Z,99430.14
2019-03-23T08:26:24.016Z,99433.22
2019-03-23T08:28:52.629Z,99429.73
2019-03-23T08:31:20.964Z,99418.28
2019-03-23T08:33:49.394Z,99431.16
2019-03-23T08:36:17.854Z,99426.19
2019-03-23T08:38:46.203Z,99431.27
2019-03-23T08:41:14.709Z,99431.50
2019-03-23T08:43:43.021Z,99433.93
2019-03-23T08:46:11.351Z,99432.12
2019-03-23T08:48:40.076Z,99431.08
2019-03-23T08:51:08.712Z,99436.66
2019-03-23T08:53:37.026Z,99435.26
2019-03-23T08:56:05.726Z,99438.51
2019-03-23T08:58:33.242Z,99430.47
2019-03-23T09:01:01.709Z,99430.80
2019-03-23T09:03:30.015Z,99428.41
2019-03-23T09:05:58.345Z,99428.56
2019-03-23T09:08:26.746Z,99426.81
2019-03-23T09:10:55.041Z,99424.77
2019-03-23T09:13:23.445Z,99424.58
2019-03-23T09:15:51.868Z,99421.34
2019-03-23T09:18:20.210Z,99420.63
2019-03-23T09:20:48.519Z,99421.68
2019-03-23T09:23:17.217Z,99420.50
2019-03-23T09:25:45.878Z,99419.44
2019-03-23T09:28:14.440Z,99414.20
2019-03-23T09:30:42.748Z,99414.09
2019-03-23T09:33:11.059Z,99412.95
2019-03-23T09:35:39.732Z,99416.78
2019-03-23T09:38:08.420Z,99414.17
2019-03-23T09:40:36.750Z,99414.63
2019-03-23T09:43:05.202Z,99409.22
2019-03-23T09:45:33.580Z,99408.65
2019-03-23T09:48:01.837Z,99402.12
2019-03-23T09:50:30.434Z,99402.30
2019-03-23T09:52:58.834Z,99399.33
2019-03-23T09:55:28.652Z,99398.77
2019-03-23T09:57:57.250Z,99391.41
2019-03-23T10:00:25.553Z,99387.42
2019-03-23T10:02:53.987Z,99386.11
2019-03-23T10:05:22.304Z,99384.56
2019-03-23T10:07:50.944Z,99377.38
2019-03-23T10:10:22.018Z,99374.57
2019-03-23T10:12:49.277Z,99373.75
2019-03-23T10:15:17.676Z,99373.64
2019-03-23T10:17:45.993Z,99367.36
2019-03-23T10:20:14.391Z,99365.23
2019-03-23T10:22:42.880Z,99364.64
2019-03-23T10:25:11.367Z,99356.83
2019-03-23T10:27:39.662Z,99359.02
2019-03-23T10:30:10.007Z,99363.77
2019-03-23T10:32:38.394Z,99355.23
2019-03-23T10:35:08.606Z,99357.84
2019-03-23T10:37:36.934Z,99350.68
2019-03-23T10:40:07.645Z,99343.23
2019-03-23T10:42:36.165Z,99345.68
2019-03-23T10:45:09.289Z,99342.73
2019-03-23T10:47:38.008Z,99339.57
2019-03-23T10:50:07.039Z,99339.91
2019-03-23T10:52:35.363Z,99329.21
2019-03-23T10:55:08.231Z,99334.34
2019-03-23T10:57:37.508Z,99334.52
2019-03-23T11:00:13.274Z,99331.63
2019-03-23T11:02:41.656Z,99327.14
2019-03-23T11:05:10.616Z,99329.95
2019-03-23T11:07:39.600Z,99316.74
2019-03-23T11:10:13.206Z,99310.05
2019-03-23T11:12:41.609Z,99305.91
2019-03-23T11:15:10.798Z,99305.24
2019-03-23T11:17:39.928Z,99308.39
2019-03-23T11:20:12.931Z,99300.80
2019-03-23T11:22:41.258Z,99296.81
2019-03-23T11:25:10.013Z,99295.48
2019-03-23T11:27:38.665Z,99297.30
2019-03-23T11:30:09.819Z,99291.00
2019-03-23T11:32:38.150Z,99287.50
2019-03-23T11:35:08.090Z,99285.30
2019-03-23T11:37:37.210Z,99278.80
2019-03-23T11:40:08.327Z,99280.73
2019-03-23T11:42:36.628Z,99273.17
2019-03-23T11:45:06.876Z,99272.11
2019-03-23T11:47:35.188Z,99266.70
2019-03-23T11:50:04.246Z,99260.23
2019-03-23T11:52:32.545Z,99265.64
2019-03-23T11:55:00.872Z,99255.23
2019-03-23T11:57:29.169Z,99254.70
2019-03-23T11:59:57.692Z,99246.73
2019-03-23T12:02:26.385Z,99252.63
2019-03-23T12:04:55.264Z,99240.13
2019-03-23T12:07:24.169Z,99240.24
2019-03-23T12:09:52.850Z,99235.47
2019-03-23T12:12:21.248Z,99233.69
2019-03-23T12:14:49.630Z,99237.22
2019-03-23T12:17:18.360Z,99234.00
2019-03-23T12:19:47.715Z,99229.03
2019-03-23T12:22:16.018Z,99226.66
2019-03-23T12:24:44.415Z,99225.98
2019-03-23T12:27:12.712Z,99231.36
2019-03-23T12:29:41.348Z,99216.45
2019-03-23T12:32:09.724Z,99222.47
2019-03-23T12:34:38.073Z,99215.90
2019-03-23T12:37:06.379Z,99213.69
2019-03-23T12:39:34.685Z,99210.45
2019-03-23T12:42:03.656Z,99201.52
2019-03-23T12:44:32.024Z,99184.30
2019-03-23T12:47:00.415Z,99196.10
2019-03-23T12:49:28.806Z,99185.23
2019-03-23T12:51:57.496Z,99184.46
2019-03-23T12:54:25.796Z,99189.00
2019-03-23T12:56:54.102Z,99181.00
2019-03-23T12:59:22.735Z,99176.63
2019-03-23T13:01:51.043Z,99181.88
2019-03-23T13:04:19.438Z,99182.25
2019-03-23T13:06:47.747Z,99180.28
2019-03-23T13:09:16.068Z,99173.56
2019-03-23T13:11:44.381Z,99165.61
2019-03-23T13:14:12.819Z,99168.28
2019-03-23T13:16:41.145Z,99166.88
2019-03-23T13:19:09.790Z,99169.66
2019-03-23T13:21:38.128Z,99164.89
2019-03-23T13:24:06.449Z,99167.91
2019-03-23T13:26:34.838Z,99153.66
2019-03-23T13:29:03.144Z,99158.02
2019-03-23T13:31:31.453Z,99151.02
2019-03-23T13:34:00.089Z,99149.52
2019-03-23T13:36:28.392Z,99152.69
2019-03-23T13:38:56.720Z,99139.72
2019-03-23T13:41:25.026Z,99141.95
2019-03-23T13:43:53.351Z,99132.87
2019-03-23T13:46:21.659Z,99136.75
2019-03-23T13:48:49.978Z,99138.27
2019-03-23T13:51:18.294Z,99125.99
2019-03-23T13:53:46.609Z,99120.84
2019-03-23T13:56:15.310Z,99117.25
2019-03-23T13:58:43.608Z,99118.89
2019-03-23T14:01:12.281Z,99107.22
2019-03-23T14:03:40.594Z,99111.40
2019-03-23T14:06:09.017Z,99107.52
2019-03-23T14:08:37.649Z,99113.55
2019-03-23T14:11:06.417Z,99105.92
2019-03-23T14:13:34.745Z,99097.76
2019-03-23T14:16:03.182Z,99100.14
2019-03-23T14:18:31.483Z,99096.63
2019-03-23T14:20:59.787Z,99098.84
2019-03-23T14:23:28.113Z,99103.34
2019-03-23T14:25:56.412Z,99103.77
2019-03-23T14:28:25.103Z,99088.77
2019-03-23T14:30:53.569Z,99092.75
2019-03-23T14:33:21.898Z,99081.41
2019-03-23T14:35:50.543Z,99083.61
2019-03-23T14:38:19.020Z,99090.24
2019-03-23T14:40:47.396Z,99085.95
2019-03-23T14:43:15.720Z,99082.93
2019-03-23T14:45:44.020Z,99084.72
2019-03-23T14:48:12.551Z,99081.41
2019-03-23T14:50:42.731Z,99080.50
2019-03-23T14:53:11.326Z,99087.84
2019-03-23T14:55:39.653Z,99087.06
2019-03-23T14:58:07.958Z,99081.53
2019-03-23T15:00:36.541Z,99081.49
2019-03-23T15:03:05.285Z,99069.94
2019-03-23T15:05:33.601Z,99076.08
2019-03-23T15:08:01.930Z,99072.39
2019-03-23T15:10:30.307Z,99078.58
2019-03-23T15:12:58.632Z,99070.83
2019-03-23T15:15:27.079Z,99067.59
2019-03-23T15:17:55.607Z,99065.42
2019-03-23T15:20:23.944Z,99070.74
2019-03-23T15:22:52.257Z,99063.30
2019-03-23T15:25:20.632Z,99065.36
2019-03-23T15:27:48.950Z,99057.10
2019-03-23T15:30:17.277Z,99059.31
2019-03-23T15:32:45.593Z,99059.01
2019-03-23T15:35:14.278Z,99058.70
2019-03-23T15:37:42.588Z,99057.15
2019-03-23T15:40:11.452Z,99052.44
2019-03-23T15:42:39.756Z,99055.02
2019-03-23T15:45:10.023Z,99054.87
2019-03-23T15:47:38.434Z,99057.18
2019-03-23T15:50:07.794Z,99062.54
2019-03-23T15:52:36.173Z,99049.91
2019-03-23T15:55:05.941Z,99051.49
2019-03-23T15:57:34.691Z,99050.14
2019-03-23T16:00:04.672Z,99046.73
2019-03-23T16:02:32.989Z,99043.94
2019-03-23T16:05:01.297Z,99039.34
2019-03-23T16:07:29.917Z,99045.80
2019-03-23T16:09:58.328Z,99041.66
2019-03-23T16:12:34.450Z,99040.73
2019-03-23T16:14:56.754Z,99040.73
2019-03-23T16:17:25.065Z,99032.76
2019-03-23T16:19:53.390Z,99034.08
2019-03-23T16:22:21.696Z,99038.28
2019-03-23T16:24:50.023Z,99039.54
2019-03-23T16:27:18.334Z,99038.36
2019-03-23T16:29:46.707Z,99045.69
2019-03-23T16:32:15.348Z,99045.84
2019-03-23T16:34:43.655Z,99038.83
2019-03-23T16:37:12.112Z,99046.88
2019-03-23T16:39:40.413Z,99047.88
2019-03-23T16:42:08.726Z,99049.05
2019-03-23T16:44:37.047Z,99044.71
2019-03-23T16:47:05.414Z,99048.89
2019-03-23T16:49:33.752Z,99047.48
2019-03-23T16:52:02.056Z,99039.92
2019-03-23T16:54:30.397Z,99043.39
2019-03-23T16:56:58.686Z,99041.84
2019-03-23T16:59:26.992Z,99041.44
2019-03-23T17:01:55.458Z,99043.19
2019-03-23T17:04:23.760Z,99048.77
2019-03-23T17:06:52.113Z,99041.77
2019-03-23T17:09:20.431Z,99045.59
2019-03-23T17:11:48.756Z,99042.89
2019-03-23T17:14:17.062Z,99037.71
2019-03-23T17:16:45.466Z,99034.09
2019-03-23T17:19:13.838Z,99039.02
2019-03-23T17:21:42.672Z,99045.84
2019-03-23T17:24:11.002Z,99047.68
2019-03-23T17:26:39.318Z,99043.72
2019-03-23T17:29:07.808Z,99046.51
2019-03-23T17:31:36.311Z,99044.43
2019-03-23T17:34:04.636Z,99042.48
2019-03-23T17:36:32.948Z,99045.83
2019-03-23T17:39:01.268Z,99045.83
2019-03-23T17:41:29.577Z,99042.80
2019-03-23T17:43:57.881Z,99041.94
2019-03-23T17:46:27.779Z,99050.71
2019-03-23T17:48:56.305Z,99052.86
2019-03-23T17:51:25.426Z,99051.49
2019-03-23T17:53:58.583Z,99054.82
2019-03-23T17:56:23.918Z,99052.02
2019-03-23T17:58:52.391Z,99052.56
2019-03-23T18:01:20.703Z,99054.70
2019-03-23T18:03:49.007Z,99053.25
2019-03-23T18:06:17.345Z,99055.00
2019-03-23T18:08:45.649Z,99059.15
2019-03-23T18:11:13.974Z,99064.44
2019-03-23T18:13:42.683Z,99070.87
2019-03-23T18:16:11.364Z,99072.55
2019-03-23T18:18:39.669Z,99072.70
2019-03-23T18:21:07.982Z,99068.83
2019-03-23T18:23:36.306Z,99066.60
2019-03-23T18:26:05.097Z,99073.48
2019-03-23T18:28:33.500Z,99072.50
2019-03-23T18:31:03.090Z,99078.97
2019-03-23T18:33:31.487Z,99082.72
2019-03-23T18:35:59.803Z,99079.73
2019-03-23T18:38:28.122Z,99079.95
2019-03-23T18:40:56.828Z,99088.39
2019-03-23T18:43:27.623Z,99084.73
2019-03-23T18:45:55.181Z,99084.54
2019-03-23T18:48:23.503Z,99090.35
2019-03-23T18:50:51.810Z,99094.90
2019-03-23T18:53:20.129Z,99089.86
2019-03-23T18:55:48.437Z,99087.80
2019-03-23T18:58:16.767Z,99099.31
2019-03-23T19:00:45.303Z,99100.08
2019-03-23T19:03:13.771Z,99097.62
2019-03-23T19:05:42.114Z,99106.95
2019-03-23T19:08:11.869Z,99101.75
2019-03-23T19:10:40.990Z,99104.88
2019-03-23T19:13:09.361Z,99106.56
2019-03-23T19:15:37.760Z,99108.33
2019-03-23T19:18:07.052Z,99107.31
2019-03-23T19:20:35.443Z,99114.97
2019-03-23T19:23:04.185Z,99114.27
2019-03-23T19:25:32.568Z,99119.72
2019-03-23T19:28:00.894Z,99120.50
2019-03-23T19:30:29.266Z,99116.80
2019-03-23T19:32:57.658Z,99112.05
2019-03-23T19:35:26.039Z,99115.92
2019-03-23T19:37:54.722Z,99117.58
2019-03-23T19:40:23.410Z,99113.80
2019-03-23T19:42:51.743Z,99116.50
2019-03-23T19:45:20.052Z,99113.93
2019-03-23T19:47:48.359Z,99117.08
2019-03-23T19:50:16.761Z,99122.91
2019-03-23T19:52:45.065Z,99120.27
2019-03-23T19:55:13.528Z,99119.13
2019-03-23T19:57:41.838Z,99120.38
2019-03-23T20:00:12.393Z,99119.69
2019-03-23T20:02:41.511Z,99127.70
2019-03-23T20:05:10.301Z,99128.76
2019-03-23T20:07:38.619Z,99140.48
2019-03-23T20:10:08.987Z,99135.72
2019-03-23T20:12:37.815Z,99146.67
2019-03-23T20:15:07.729Z,99144.02
2019-03-23T20:17:36.126Z,99150.98
2019-03-23T20:20:07.258Z,99149.93
2019-03-23T20:22:35.654Z,99144.88
2019-03-23T20:25:05.413Z,99143.27
2019-03-23T20:27:33.786Z,99145.25
2019-03-23T20:30:02.059Z,99143.34
2019-03-23T20:32:30.379Z,99144.75
2019-03-23T20:34:59.079Z,99143.36
2019-03-23T20:37:27.467Z,99147.84
2019-03-23T20:39:55.790Z,99143.35
2019-03-23T20:42:24.100Z,99144.73
2019-03-23T20:44:52.427Z,99142.97
2019-03-23T20:47:21.012Z,99147.05
2019-03-23T20:49:49.405Z,99151.62
2019-03-23T20:52:18.161Z,99154.55
2019-03-23T20:54:47.519Z,99151.23
2019-03-23T20:57:23.394Z,99119.89
2019-03-23T20:59:45.863Z,99150.86
2019-03-23T21:02:14.194Z,99147.87
2019-03-23T21:04:42.511Z,99153.68
2019-03-23T21:07:10.898Z,99153.93
2019-03-23T21:09:39.208Z,99148.38
2019-03-23T21:12:07.535Z,99155.31
2019-03-23T21:14:35.848Z,99151.62
2019-03-23T21:17:04.246Z,99153.48
2019-03-23T21:19:32.558Z,99154.16
2019-03-23T21:22:00.964Z,99147.94
2019-03-23T21:24:29.279Z,99143.86
2019-03-23T21:26:57.960Z,99145.14
2019-03-23T21:29:26.414Z,99145.56
2019-03-23T21:31:54.719Z,99138.45
2019-03-23T21:34:23.054Z,99139.84
2019-03-23T21:36:51.369Z,99139.30
2019-03-23T21:39:19.766Z,99139.07
2019-03-23T21:41:48.079Z,99130.95
2019-03-23T21:44:16.399Z,99141.97
2019-03-23T21:46:44.728Z,99133.56
2019-03-23T21:49:13.504Z,99136.11
2019-03-23T21:51:41.836Z,99135.03
2019-03-23T21:54:10.145Z,99133.72
2019-03-23T21:56:38.848Z,99137.83
2019-03-23T21:59:07.160Z,99137.05
2019-03-23T22:01:35.494Z,99139.14
2019-03-23T22:04:03.798Z,99139.91
2019-03-23T22:06:32.124Z,99143.00
2019-03-23T22:09:00.752Z,99136.06
2019-03-23T22:11:29.075Z,99138.84
2019-03-23T22:13:57.400Z,99143.46
2019-03-23T22:16:25.997Z,99141.34
2019-03-23T22:18:54.349Z,99138.09
2019-03-23T22:21:22.651Z,99140.53
2019-03-23T22:23:51.357Z,99137.64
2019-03-23T22:26:19.713Z,99137.15
2019-03-23T22:28:48.052Z,99137.59
2019-03-23T22:31:16.366Z,99138.98
2019-03-23T22:33:44.672Z,99138.86
2019-03-23T22:36:12.993Z,99135.68
2019-03-23T22:38:41.301Z,99134.98
2019-03-23T22:41:09.704Z,99136.88
2019-03-23T22:43:39.016Z,99137.73
2019-03-23T22:46:07.331Z,99134.52
2019-03-23T22:48:35.984Z,99129.68
2019-03-23T22:51:04.360Z,99126.61
2019-03-23T22:53:32.681Z,99123.80
2019-03-23T22:56:00.986Z,99122.17
2019-03-23T22:58:29.307Z,99118.80
2019-03-23T23:00:57.683Z,99122.59
2019-03-23T23:03:25.986Z,99125.64
2019-03-23T23:05:54.387Z,99121.05
2019-03-23T23:08:22.695Z,99124.81
2019-03-23T23:10:51.025Z,99118.03
2019-03-23T23:13:19.697Z,99119.16
2019-03-23T23:15:48.014Z,99116.19
2019-03-23T23:18:16.391Z,99115.30
2019-03-23T23:20:44.713Z,99114.23
2019-03-23T23:23:13.019Z,99108.50
2019-03-23T23:25:41.424Z,99109.33
2019-03-23T23:28:09.722Z,99104.25
2019-03-23T23:30:38.033Z,99105.36
2019-03-23T23:33:06.357Z,99115.97
2019-03-23T23:35:34.734Z,99111.35
2019-03-23T23:38:03.131Z,99111.16
2019-03-23T23:40:31.439Z,99108.70
2019-03-23T23:42:59.760Z,99113.33
2019-03-23T23:45:28.084Z,99115.11
2019-03-23T23:47:56.390Z,99109.87
2019-03-23T23:50:24.716Z,99103.68
2019-03-23T23:52:53.026Z,99109.97
2019-03-23T23:55:21.336Z,99106.27
2019-03-23T23:57:49.655Z,99101.92
